sensor_id;sensor_type;location;lat;lon;timestamp;pressure;altitude;pressure_sealevel;temperature;humidity
66668;BME280;57205;51.438;-2.006;2024-02-16T00:01:26;100104.91;;;11.26;100.00
66668;BME280;57205;51.438;-2.006;2024-02-16T00:03:51;100111.88;;;11.27;100.00
66668;BME280;57205;51.438;-2.006;2024-02-16T00:06:17;100110.53;;;11.25;100.00
66668;BME280;57205;51.438;-2.006;2024-02-16T00:08:42;100113.50;;;11.23;100.00
66668;BME280;57205;51.438;-2.006;2024-02-16T00:11:08;100111.88;;;11.22;100.00
66668;BME280;57205;51.438;-2.006;2024-02-16T00:13:34;100119.16;;;11.22;100.00
66668;BME280;57205;51.438;-2.006;2024-02-16T00:15:59;100120.72;;;11.23;100.00
66668;BME280;57205;51.438;-2.006;2024-02-16T00:18:25;100118.63;;;11.20;100.00
66668;BME280;57205;51.438;-2.006;2024-02-16T00:20:51;100133.06;;;11.19;100.00
66668;BME280;57205;51.438;-2.006;2024-02-16T00:23:16;100138.44;;;11.19;100.00
66668;BME280;57205;51.438;-2.006;2024-02-16T00:25:44;100134.47;;;11.16;100.00
66668;BME280;57205;51.438;-2.006;2024-02-16T00:28:11;100131.22;;;11.19;100.00
66668;BME280;57205;51.438;-2.006;2024-02-16T00:30:36;100132.31;;;11.18;100.00
66668;BME280;57205;51.438;-2.006;2024-02-16T00:33:02;100126.13;;;11.18;100.00
66668;BME280;57205;51.438;-2.006;2024-02-16T00:35:29;100130.69;;;11.17;100.00
66668;BME280;57205;51.438;-2.006;2024-02-16T00:37:59;100130.44;;;11.14;100.00
66668;BME280;57205;51.438;-2.006;2024-02-16T00:40:25;100125.66;;;11.11;100.00
66668;BME280;57205;51.438;-2.006;2024-02-16T00:42:52;100122.19;;;11.10;100.00
66668;BME280;57205;51.438;-2.006;2024-02-16T00:45:17;100123.50;;;11.13;100.00
66668;BME280;57205;51.438;-2.006;2024-02-16T00:47:43;100122.47;;;11.09;100.00
66668;BME280;57205;51.438;-2.006;2024-02-16T00:50:12;100134.22;;;11.08;100.00
66668;BME280;57205;51.438;-2.006;2024-02-16T00:52:38;100135.59;;;11.05;100.00
66668;BME280;57205;51.438;-2.006;2024-02-16T00:55:06;100135.09;;;11.03;100.00
66668;BME280;57205;51.438;-2.006;2024-02-16T00:57:31;100132.69;;;11.02;100.00
66668;BME280;57205;51.438;-2.006;2024-02-16T00:59:59;100133.75;;;11.01;100.00
66668;BME280;57205;51.438;-2.006;2024-02-16T01:02:24;100145.56;;;11.00;100.00
66668;BME280;57205;51.438;-2.006;2024-02-16T01:04:52;100137.78;;;10.98;100.00
66668;BME280;57205;51.438;-2.006;2024-02-16T01:07:18;100141.53;;;10.97;100.00
66668;BME280;57205;51.438;-2.006;2024-02-16T01:09:43;100141.31;;;10.94;100.00
66668;BME280;57205;51.438;-2.006;2024-02-16T01:12:08;100130.88;;;10.92;100.00
66668;BME280;57205;51.438;-2.006;2024-02-16T01:14:34;100127.41;;;10.92;100.00
66668;BME280;57205;51.438;-2.006;2024-02-16T01:17:00;100139.44;;;10.89;100.00
66668;BME280;57205;51.438;-2.006;2024-02-16T01:19:25;100143.75;;;10.90;100.00
66668;BME280;57205;51.438;-2.006;2024-02-16T01:21:51;100144.03;;;10.89;100.00
66668;BME280;57205;51.438;-2.006;2024-02-16T01:24:19;100136.25;;;10.87;100.00
66668;BME280;57205;51.438;-2.006;2024-02-16T01:26:46;100143.50;;;10.87;100.00
66668;BME280;57205;51.438;-2.006;2024-02-16T01:29:12;100133.03;;;10.85;100.00
66668;BME280;57205;51.438;-2.006;2024-02-16T01:31:37;100134.94;;;10.85;100.00
66668;BME280;57205;51.438;-2.006;2024-02-16T01:34:03;100144.03;;;10.83;100.00
66668;BME280;57205;51.438;-2.006;2024-02-16T01:36:28;100141.91;;;10.80;100.00
66668;BME280;57205;51.438;-2.006;2024-02-16T01:38:54;100138.16;;;10.81;100.00
66668;BME280;57205;51.438;-2.006;2024-02-16T01:41:19;100138.16;;;10.81;100.00
66668;BME280;57205;51.438;-2.006;2024-02-16T01:43:45;100146.47;;;10.80;100.00
66668;BME280;57205;51.438;-2.006;2024-02-16T01:46:10;100151.28;;;10.78;100.00
66668;BME280;57205;51.438;-2.006;2024-02-16T01:48:36;100148.38;;;10.74;100.00
66668;BME280;57205;51.438;-2.006;2024-02-16T01:51:05;100149.47;;;10.73;100.00
66668;BME280;57205;51.438;-2.006;2024-02-16T01:53:31;100159.13;;;10.69;100.00
66668;BME280;57205;51.438;-2.006;2024-02-16T01:55:57;100167.66;;;10.66;100.00
66668;BME280;57205;51.438;-2.006;2024-02-16T01:58:23;100199.78;;;10.66;100.00
66668;BME280;57205;51.438;-2.006;2024-02-16T02:00:50;100220.13;;;10.67;100.00
66668;BME280;57205;51.438;-2.006;2024-02-16T02:03:16;100215.84;;;10.66;100.00
66668;BME280;57205;51.438;-2.006;2024-02-16T02:05:44;100220.69;;;10.64;100.00
66668;BME280;57205;51.438;-2.006;2024-02-16T02:08:11;100212.09;;;10.67;100.00
66668;BME280;57205;51.438;-2.006;2024-02-16T02:10:37;100228.16;;;10.67;100.00
66668;BME280;57205;51.438;-2.006;2024-02-16T02:13:02;100235.13;;;10.63;100.00
66668;BME280;57205;51.438;-2.006;2024-02-16T02:15:28;100252.25;;;10.62;100.00
66668;BME280;57205;51.438;-2.006;2024-02-16T02:17:53;100247.44;;;10.59;100.00
66668;BME280;57205;51.438;-2.006;2024-02-16T02:20:19;100257.59;;;10.57;100.00
66668;BME280;57205;51.438;-2.006;2024-02-16T02:22:45;100263.22;;;10.56;100.00
66668;BME280;57205;51.438;-2.006;2024-02-16T02:25:10;100266.19;;;10.54;100.00
66668;BME280;57205;51.438;-2.006;2024-02-16T02:27:37;100284.09;;;10.54;100.00
66668;BME280;57205;51.438;-2.006;2024-02-16T02:30:03;100280.91;;;10.52;100.00
66668;BME280;57205;51.438;-2.006;2024-02-16T02:32:28;100280.13;;;10.46;100.00
66668;BME280;57205;51.438;-2.006;2024-02-16T02:34:54;100282.00;;;10.46;100.00
66668;BME280;57205;51.438;-2.006;2024-02-16T02:37:19;100279.56;;;10.44;100.00
66668;BME280;57205;51.438;-2.006;2024-02-16T02:39:45;100282.53;;;10.43;100.00
66668;BME280;57205;51.438;-2.006;2024-02-16T02:42:10;100271.56;;;10.39;100.00
66668;BME280;57205;51.438;-2.006;2024-02-16T02:44:36;100280.94;;;10.37;100.00
66668;BME280;57205;51.438;-2.006;2024-02-16T02:47:02;100273.19;;;10.35;100.00
66668;BME280;57205;51.438;-2.006;2024-02-16T02:49:27;100279.09;;;10.32;100.00
66668;BME280;57205;51.438;-2.006;2024-02-16T02:51:53;100277.47;;;10.31;100.00
66668;BME280;57205;51.438;-2.006;2024-02-16T02:54:18;100282.31;;;10.29;100.00
66668;BME280;57205;51.438;-2.006;2024-02-16T02:56:44;100276.66;;;10.26;100.00
66668;BME280;57205;51.438;-2.006;2024-02-16T02:59:09;100269.19;;;10.23;100.00
66668;BME280;57205;51.438;-2.006;2024-02-16T03:01:36;100271.34;;;10.21;100.00
66668;BME280;57205;51.438;-2.006;2024-02-16T03:04:02;100266.00;;;10.21;100.00
66668;BME280;57205;51.438;-2.006;2024-02-16T03:06:28;100264.66;;;10.18;100.00
66668;BME280;57205;51.438;-2.006;2024-02-16T03:08:53;100266.28;;;10.19;100.00
66668;BME280;57205;51.438;-2.006;2024-02-16T03:11:19;100265.19;;;10.15;100.00
66668;BME280;57205;51.438;-2.006;2024-02-16T03:13:45;100264.13;;;10.11;100.00
66668;BME280;57205;51.438;-2.006;2024-02-16T03:16:11;100271.63;;;10.09;100.00
66668;BME280;57205;51.438;-2.006;2024-02-16T03:18:37;100257.69;;;10.07;100.00
66668;BME280;57205;51.438;-2.006;2024-02-16T03:21:02;100256.38;;;10.05;100.00
66668;BME280;57205;51.438;-2.006;2024-02-16T03:23:28;100270.00;;;10.03;100.00
66668;BME280;57205;51.438;-2.006;2024-02-16T03:25:53;100277.22;;;10.03;100.00
66668;BME280;57205;51.438;-2.006;2024-02-16T03:28:20;100283.91;;;10.00;100.00
66668;BME280;57205;51.438;-2.006;2024-02-16T03:30:45;100283.63;;;9.97;100.00
66668;BME280;57205;51.438;-2.006;2024-02-16T03:33:12;100289.53;;;9.94;100.00
66668;BME280;57205;51.438;-2.006;2024-02-16T03:35:39;100282.81;;;9.91;100.00
66668;BME280;57205;51.438;-2.006;2024-02-16T03:38:05;100288.97;;;9.92;100.00
66668;BME280;57205;51.438;-2.006;2024-02-16T03:40:32;100302.34;;;9.92;100.00
66668;BME280;57205;51.438;-2.006;2024-02-16T03:42:58;100308.75;;;9.91;100.00
66668;BME280;57205;51.438;-2.006;2024-02-16T03:45:24;100315.72;;;9.92;100.00
66668;BME280;57205;51.438;-2.006;2024-02-16T03:47:52;100316.22;;;9.88;100.00
66668;BME280;57205;51.438;-2.006;2024-02-16T03:50:18;100318.63;;;9.85;100.00
66668;BME280;57205;51.438;-2.006;2024-02-16T03:52:44;100323.19;;;9.84;100.00
66668;BME280;57205;51.438;-2.006;2024-02-16T03:55:10;100324.50;;;9.87;100.00
66668;BME280;57205;51.438;-2.006;2024-02-16T03:57:37;100326.66;;;9.85;100.00
66668;BME280;57205;51.438;-2.006;2024-02-16T04:00:04;100335.47;;;9.85;100.00
66668;BME280;57205;51.438;-2.006;2024-02-16T04:02:31;100329.06;;;9.81;100.00
66668;BME280;57205;51.438;-2.006;2024-02-16T04:04:56;100342.41;;;9.81;100.00
66668;BME280;57205;51.438;-2.006;2024-02-16T04:07:22;100341.34;;;9.77;100.00
66668;BME280;57205;51.438;-2.006;2024-02-16T04:09:47;100348.03;;;9.75;100.00
66668;BME280;57205;51.438;-2.006;2024-02-16T04:12:13;100345.88;;;9.72;100.00
66668;BME280;57205;51.438;-2.006;2024-02-16T04:14:46;100344.53;;;9.69;100.00
66668;BME280;57205;51.438;-2.006;2024-02-16T04:17:12;100353.88;;;9.67;100.00
66668;BME280;57205;51.438;-2.006;2024-02-16T04:19:44;100357.63;;;9.66;100.00
66668;BME280;57205;51.438;-2.006;2024-02-16T04:22:09;100359.22;;;9.62;100.00
66668;BME280;57205;51.438;-2.006;2024-02-16T04:24:35;100361.63;;;9.58;100.00
66668;BME280;57205;51.438;-2.006;2024-02-16T04:27:00;100373.34;;;9.57;100.00
66668;BME280;57205;51.438;-2.006;2024-02-16T04:29:27;100382.44;;;9.56;100.00
66668;BME280;57205;51.438;-2.006;2024-02-16T04:31:54;100382.69;;;9.45;100.00
66668;BME280;57205;51.438;-2.006;2024-02-16T04:34:19;100391.22;;;9.42;100.00
66668;BME280;57205;51.438;-2.006;2024-02-16T04:36:54;100379.72;;;9.36;100.00
66668;BME280;57205;51.438;-2.006;2024-02-16T04:39:22;100394.09;;;9.30;100.00
66668;BME280;57205;51.438;-2.006;2024-02-16T04:41:48;100398.09;;;9.28;100.00
66668;BME280;57205;51.438;-2.006;2024-02-16T04:44:14;100392.75;;;9.23;100.00
66668;BME280;57205;51.438;-2.006;2024-02-16T04:46:40;100399.94;;;9.22;100.00
66668;BME280;57205;51.438;-2.006;2024-02-16T04:49:06;100404.47;;;9.22;100.00
66668;BME280;57205;51.438;-2.006;2024-02-16T04:51:31;100401.22;;;9.15;100.00
66668;BME280;57205;51.438;-2.006;2024-02-16T04:53:57;100416.44;;;9.14;100.00
66668;BME280;57205;51.438;-2.006;2024-02-16T04:56:23;100412.94;;;9.09;100.00
66668;BME280;57205;51.438;-2.006;2024-02-16T04:58:50;100418.28;;;9.09;100.00
66668;BME280;57205;51.438;-2.006;2024-02-16T05:01:16;100419.91;;;9.10;100.00
66668;BME280;57205;51.438;-2.006;2024-02-16T05:03:42;100424.44;;;9.09;100.00
66668;BME280;57205;51.438;-2.006;2024-02-16T05:06:08;100430.56;;;9.10;100.00
66668;BME280;57205;51.438;-2.006;2024-02-16T05:08:35;100441.25;;;9.10;100.00
66668;BME280;57205;51.438;-2.006;2024-02-16T05:11:02;100435.06;;;9.04;100.00
66668;BME280;57205;51.438;-2.006;2024-02-16T05:13:29;100445.50;;;9.06;100.00
66668;BME280;57205;51.438;-2.006;2024-02-16T05:15:54;100466.84;;;9.06;100.00
66668;BME280;57205;51.438;-2.006;2024-02-16T05:18:24;100462.06;;;9.08;100.00
66668;BME280;57205;51.438;-2.006;2024-02-16T05:20:51;100469.25;;;9.07;100.00
66668;BME280;57205;51.438;-2.006;2024-02-16T05:23:39;100479.66;;;9.09;100.00
66668;BME280;57205;51.438;-2.006;2024-02-16T05:26:21;100481.25;;;9.05;100.00
66668;BME280;57205;51.438;-2.006;2024-02-16T05:28:47;100484.44;;;9.02;100.00
66668;BME280;57205;51.438;-2.006;2024-02-16T05:31:18;100487.88;;;8.97;100.00
66668;BME280;57205;51.438;-2.006;2024-02-16T05:33:55;100484.41;;;8.97;100.00
66668;BME280;57205;51.438;-2.006;2024-02-16T05:36:22;100492.38;;;8.92;100.00
66668;BME280;57205;51.438;-2.006;2024-02-16T05:38:55;100488.59;;;8.88;100.00
66668;BME280;57205;51.438;-2.006;2024-02-16T05:41:26;100493.09;;;8.82;100.00
66668;BME280;57205;51.438;-2.006;2024-02-16T05:43:52;100494.38;;;8.74;100.00
66668;BME280;57205;51.438;-2.006;2024-02-16T05:46:17;100495.94;;;8.70;100.00
66668;BME280;57205;51.438;-2.006;2024-02-16T05:48:43;100514.56;;;8.65;100.00
66668;BME280;57205;51.438;-2.006;2024-02-16T05:51:10;100512.41;;;8.62;100.00
66668;BME280;57205;51.438;-2.006;2024-02-16T05:53:38;100516.09;;;8.56;100.00
66668;BME280;57205;51.438;-2.006;2024-02-16T05:56:05;100512.25;;;8.47;100.00
66668;BME280;57205;51.438;-2.006;2024-02-16T05:58:30;100524.72;;;8.42;100.00
66668;BME280;57205;51.438;-2.006;2024-02-16T06:00:56;100520.44;;;8.36;100.00
66668;BME280;57205;51.438;-2.006;2024-02-16T06:03:28;100527.88;;;8.34;100.00
66668;BME280;57205;51.438;-2.006;2024-02-16T06:05:54;100531.78;;;8.26;100.00
66668;BME280;57205;51.438;-2.006;2024-02-16T06:08:20;100538.63;;;8.22;100.00
66668;BME280;57205;51.438;-2.006;2024-02-16T06:10:45;100535.94;;;8.17;100.00
66668;BME280;57205;51.438;-2.006;2024-02-16T06:13:17;100541.19;;;8.12;100.00
66668;BME280;57205;51.438;-2.006;2024-02-16T06:15:43;100546.22;;;8.09;100.00
66668;BME280;57205;51.438;-2.006;2024-02-16T06:18:10;100545.91;;;8.05;100.00
66668;BME280;57205;51.438;-2.006;2024-02-16T06:20:37;100550.19;;;8.06;100.00
66668;BME280;57205;51.438;-2.006;2024-02-16T06:23:03;100558.19;;;8.06;100.00
66668;BME280;57205;51.438;-2.006;2024-02-16T06:25:37;100563.75;;;8.05;100.00
66668;BME280;57205;51.438;-2.006;2024-02-16T06:28:06;100565.06;;;8.02;100.00
66668;BME280;57205;51.438;-2.006;2024-02-16T06:30:49;100572.56;;;8.05;100.00
66668;BME280;57205;51.438;-2.006;2024-02-16T06:33:16;100575.47;;;8.04;100.00
66668;BME280;57205;51.438;-2.006;2024-02-16T06:35:42;100574.66;;;8.03;100.00
66668;BME280;57205;51.438;-2.006;2024-02-16T06:41:27;100583.72;;;8.02;100.00
66668;BME280;57205;51.438;-2.006;2024-02-16T06:43:52;100589.03;;;8.02;100.00
66668;BME280;57205;51.438;-2.006;2024-02-16T06:46:18;100592.50;;;8.03;100.00
66668;BME280;57205;51.438;-2.006;2024-02-16T06:48:43;100598.06;;;8.01;100.00
66668;BME280;57205;51.438;-2.006;2024-02-16T06:51:10;100607.63;;;7.97;100.00
66668;BME280;57205;51.438;-2.006;2024-02-16T06:53:35;100608.69;;;7.96;100.00
66668;BME280;57205;51.438;-2.006;2024-02-16T06:56:03;100609.75;;;7.95;100.00
66668;BME280;57205;51.438;-2.006;2024-02-16T06:58:48;100633.94;;;7.93;100.00
66668;BME280;57205;51.438;-2.006;2024-02-16T07:01:14;100632.34;;;7.93;100.00
66668;BME280;57205;51.438;-2.006;2024-02-16T07:03:43;100643.50;;;7.89;100.00
66668;BME280;57205;51.438;-2.006;2024-02-16T07:06:09;100650.38;;;7.85;100.00
66668;BME280;57205;51.438;-2.006;2024-02-16T07:08:43;100651.09;;;7.81;100.00
66668;BME280;57205;51.438;-2.006;2024-02-16T07:11:09;100657.47;;;7.80;100.00
66668;BME280;57205;51.438;-2.006;2024-02-16T07:17:00;100663.59;;;7.80;100.00
66668;BME280;57205;51.438;-2.006;2024-02-16T07:19:26;100671.13;;;7.83;100.00
66668;BME280;57205;51.438;-2.006;2024-02-16T07:21:52;100665.78;;;7.83;100.00
66668;BME280;57205;51.438;-2.006;2024-02-16T07:24:26;100668.19;;;7.85;100.00
66668;BME280;57205;51.438;-2.006;2024-02-16T07:26:53;100679.16;;;7.88;100.00
66668;BME280;57205;51.438;-2.006;2024-02-16T07:29:20;100685.38;;;7.94;100.00
66668;BME280;57205;51.438;-2.006;2024-02-16T07:31:45;100694.56;;;8.03;100.00
66668;BME280;57205;51.438;-2.006;2024-02-16T07:34:11;100688.00;;;8.11;100.00
66668;BME280;57205;51.438;-2.006;2024-02-16T07:36:36;100691.53;;;8.16;100.00
66668;BME280;57205;51.438;-2.006;2024-02-16T07:39:02;100698.81;;;8.21;100.00
66668;BME280;57205;51.438;-2.006;2024-02-16T07:41:57;100709.81;;;8.24;100.00
66668;BME280;57205;51.438;-2.006;2024-02-16T07:44:23;100706.09;;;8.25;100.00
66668;BME280;57205;51.438;-2.006;2024-02-16T07:46:49;100708.75;;;8.25;100.00
66668;BME280;57205;51.438;-2.006;2024-02-16T07:49:16;100716.75;;;8.25;100.00
66668;BME280;57205;51.438;-2.006;2024-02-16T07:51:42;100725.88;;;8.29;100.00
66668;BME280;57205;51.438;-2.006;2024-02-16T07:54:07;100729.41;;;8.35;100.00
66668;BME280;57205;51.438;-2.006;2024-02-16T07:56:33;100741.75;;;8.41;100.00
66668;BME280;57205;51.438;-2.006;2024-02-16T07:58:59;100746.91;;;8.47;100.00
66668;BME280;57205;51.438;-2.006;2024-02-16T08:01:28;100749.41;;;8.54;100.00
66668;BME280;57205;51.438;-2.006;2024-02-16T08:03:53;100757.22;;;8.60;100.00
66668;BME280;57205;51.438;-2.006;2024-02-16T08:09:43;100770.69;;;8.70;100.00
66668;BME280;57205;51.438;-2.006;2024-02-16T08:12:09;100771.00;;;8.74;100.00
66668;BME280;57205;51.438;-2.006;2024-02-16T08:14:35;100778.00;;;8.80;100.00
66668;BME280;57205;51.438;-2.006;2024-02-16T08:17:06;100783.16;;;8.86;100.00
66668;BME280;57205;51.438;-2.006;2024-02-16T08:19:37;100784.56;;;8.94;100.00
66668;BME280;57205;51.438;-2.006;2024-02-16T08:22:12;100791.34;;;9.02;100.00
66668;BME280;57205;51.438;-2.006;2024-02-16T08:24:37;100792.19;;;9.07;100.00
66668;BME280;57205;51.438;-2.006;2024-02-16T08:27:33;100797.63;;;9.12;100.00
66668;BME280;57205;51.438;-2.006;2024-02-16T08:29:59;100794.44;;;9.15;100.00
66668;BME280;57205;51.438;-2.006;2024-02-16T08:32:25;100798.53;;;9.23;100.00
66668;BME280;57205;51.438;-2.006;2024-02-16T08:35:06;100813.56;;;9.29;100.00
66668;BME280;57205;51.438;-2.006;2024-02-16T08:37:32;100814.41;;;9.34;100.00
66668;BME280;57205;51.438;-2.006;2024-02-16T08:39:58;100800.81;;;9.36;100.00
66668;BME280;57205;51.438;-2.006;2024-02-16T08:42:24;100816.63;;;9.42;100.00
66668;BME280;57205;51.438;-2.006;2024-02-16T08:44:50;100818.53;;;9.47;100.00
66668;BME280;57205;51.438;-2.006;2024-02-16T08:50:19;100825.03;;;9.56;100.00
66668;BME280;57205;51.438;-2.006;2024-02-16T08:52:45;100829.09;;;9.58;100.00
66668;BME280;57205;51.438;-2.006;2024-02-16T08:55:15;100832.84;;;9.62;100.00
66668;BME280;57205;51.438;-2.006;2024-02-16T08:57:41;100844.41;;;9.68;100.00
66668;BME280;57205;51.438;-2.006;2024-02-16T09:00:07;100842.34;;;9.75;100.00
66668;BME280;57205;51.438;-2.006;2024-02-16T09:02:43;100841.31;;;9.81;100.00
66668;BME280;57205;51.438;-2.006;2024-02-16T09:05:15;100840.38;;;9.92;100.00
66668;BME280;57205;51.438;-2.006;2024-02-16T09:07:40;100847.06;;;10.26;100.00
66668;BME280;57205;51.438;-2.006;2024-02-16T09:13:18;100845.91;;;11.72;100.00
66668;BME280;57205;51.438;-2.006;2024-02-16T09:15:44;100834.88;;;12.54;100.00
66668;BME280;57205;51.438;-2.006;2024-02-16T09:18:09;100813.69;;;13.32;100.00
66668;BME280;57205;51.438;-2.006;2024-02-16T09:20:35;100814.78;;;14.08;100.00
66668;BME280;57205;51.438;-2.006;2024-02-16T09:23:00;100800.72;;;14.45;100.00
66668;BME280;57205;51.438;-2.006;2024-02-16T09:25:26;100797.84;;;14.36;100.00
66668;BME280;57205;51.438;-2.006;2024-02-16T09:27:51;100803.16;;;13.84;100.00
66668;BME280;57205;51.438;-2.006;2024-02-16T09:30:17;100815.25;;;13.43;100.00
66668;BME280;57205;51.438;-2.006;2024-02-16T09:32:42;100825.63;;;13.11;100.00
66668;BME280;57205;51.438;-2.006;2024-02-16T09:35:08;100840.72;;;12.87;100.00
66668;BME280;57205;51.438;-2.006;2024-02-16T09:37:41;100849.94;;;12.55;100.00
66668;BME280;57205;51.438;-2.006;2024-02-16T09:40:07;100855.88;;;12.27;100.00
66668;BME280;57205;51.438;-2.006;2024-02-16T09:42:37;100860.16;;;12.03;100.00
66668;BME280;57205;51.438;-2.006;2024-02-16T09:45:06;100870.59;;;11.85;100.00
66668;BME280;57205;51.438;-2.006;2024-02-16T09:47:33;100874.84;;;11.65;100.00
66668;BME280;57205;51.438;-2.006;2024-02-16T09:50:00;100876.38;;;11.51;100.00
66668;BME280;57205;51.438;-2.006;2024-02-16T09:52:29;100887.88;;;11.37;100.00
66668;BME280;57205;51.438;-2.006;2024-02-16T09:55:10;100884.59;;;11.30;100.00
66668;BME280;57205;51.438;-2.006;2024-02-16T09:58:10;100892.34;;;11.26;100.00
66668;BME280;57205;51.438;-2.006;2024-02-16T10:00:47;100910.06;;;11.27;100.00
66668;BME280;57205;51.438;-2.006;2024-02-16T10:06:45;100909.22;;;11.22;100.00
66668;BME280;57205;51.438;-2.006;2024-02-16T10:09:25;100913.25;;;11.24;100.00
66668;BME280;57205;51.438;-2.006;2024-02-16T10:11:51;100916.81;;;11.45;100.00
66668;BME280;57205;51.438;-2.006;2024-02-16T10:14:17;100921.53;;;11.85;100.00
66668;BME280;57205;51.438;-2.006;2024-02-16T10:16:45;100925.88;;;12.31;100.00
66668;BME280;57205;51.438;-2.006;2024-02-16T10:19:11;100923.47;;;12.54;100.00
66668;BME280;57205;51.438;-2.006;2024-02-16T10:21:37;100924.56;;;12.53;100.00
66668;BME280;57205;51.438;-2.006;2024-02-16T10:24:06;100925.91;;;12.46;100.00
66668;BME280;57205;51.438;-2.006;2024-02-16T10:26:35;100930.19;;;12.42;100.00
66668;BME280;57205;51.438;-2.006;2024-02-16T10:29:21;100938.50;;;12.35;100.00
66668;BME280;57205;51.438;-2.006;2024-02-16T10:31:51;100940.91;;;12.32;100.00
66668;BME280;57205;51.438;-2.006;2024-02-16T10:34:19;100939.56;;;12.29;100.00
66668;BME280;57205;51.438;-2.006;2024-02-16T10:36:56;100938.78;;;12.24;100.00
66668;BME280;57205;51.438;-2.006;2024-02-16T10:39:23;100948.13;;;12.06;100.00
66668;BME280;57205;51.438;-2.006;2024-02-16T10:41:49;100941.66;;;12.02;100.00
66668;BME280;57205;51.438;-2.006;2024-02-16T10:44:16;100951.84;;;11.85;100.00
66668;BME280;57205;51.438;-2.006;2024-02-16T10:46:43;100957.16;;;11.75;100.00
66668;BME280;57205;51.438;-2.006;2024-02-16T10:49:11;100951.16;;;11.58;100.00
66668;BME280;57205;51.438;-2.006;2024-02-16T10:51:48;100953.81;;;11.48;100.00
66668;BME280;57205;51.438;-2.006;2024-02-16T10:54:18;100971.50;;;11.44;100.00
66668;BME280;57205;51.438;-2.006;2024-02-16T10:56:45;100964.19;;;11.34;100.00
66668;BME280;57205;51.438;-2.006;2024-02-16T10:59:11;100978.97;;;11.37;100.00
66668;BME280;57205;51.438;-2.006;2024-02-16T11:01:43;100988.06;;;11.41;100.00
66668;BME280;57205;51.438;-2.006;2024-02-16T11:04:16;100982.75;;;11.51;100.00
66668;BME280;57205;51.438;-2.006;2024-02-16T11:07:16;100979.91;;;11.67;100.00
66668;BME280;57205;51.438;-2.006;2024-02-16T11:09:43;100988.53;;;11.74;100.00
66668;BME280;57205;51.438;-2.006;2024-02-16T11:12:13;100986.63;;;11.70;100.00
66668;BME280;57205;51.438;-2.006;2024-02-16T11:14:44;100996.00;;;11.72;100.00
66668;BME280;57205;51.438;-2.006;2024-02-16T11:17:20;100991.19;;;11.74;100.00
66668;BME280;57205;51.438;-2.006;2024-02-16T11:19:47;100998.69;;;11.67;100.00
66668;BME280;57205;51.438;-2.006;2024-02-16T11:22:18;100994.59;;;11.60;100.00
66668;BME280;57205;51.438;-2.006;2024-02-16T11:24:48;100994.31;;;11.56;100.00
66668;BME280;57205;51.438;-2.006;2024-02-16T11:27:16;101002.34;;;11.51;100.00
66668;BME280;57205;51.438;-2.006;2024-02-16T11:29:45;101002.63;;;11.55;100.00
66668;BME280;57205;51.438;-2.006;2024-02-16T11:32:18;101006.91;;;11.56;100.00
66668;BME280;57205;51.438;-2.006;2024-02-16T11:35:19;101007.44;;;11.58;100.00
66668;BME280;57205;51.438;-2.006;2024-02-16T11:37:45;101010.66;;;11.50;100.00
66668;BME280;57205;51.438;-2.006;2024-02-16T11:40:18;101015.47;;;11.48;100.00
66668;BME280;57205;51.438;-2.006;2024-02-16T11:42:44;101026.47;;;11.51;100.00
66668;BME280;57205;51.438;-2.006;2024-02-16T11:45:15;101038.28;;;11.55;100.00
66668;BME280;57205;51.438;-2.006;2024-02-16T11:47:41;101028.63;;;11.59;100.00
66668;BME280;57205;51.438;-2.006;2024-02-16T11:53:09;101029.56;;;11.80;100.00
66668;BME280;57205;51.438;-2.006;2024-02-16T11:55:37;101020.47;;;11.91;100.00
66668;BME280;57205;51.438;-2.006;2024-02-16T11:58:03;101023.47;;;11.95;100.00
66668;BME280;57205;51.438;-2.006;2024-02-16T12:00:48;101029.34;;;11.97;100.00
66668;BME280;57205;51.438;-2.006;2024-02-16T12:03:25;101028.28;;;11.93;100.00
66668;BME280;57205;51.438;-2.006;2024-02-16T12:05:54;101026.94;;;11.95;100.00
66668;BME280;57205;51.438;-2.006;2024-02-16T12:08:21;101029.06;;;11.93;100.00
66668;BME280;57205;51.438;-2.006;2024-02-16T12:11:02;101029.66;;;12.00;100.00
66668;BME280;57205;51.438;-2.006;2024-02-16T12:13:28;101027.50;;;12.02;100.00
66668;BME280;57205;51.438;-2.006;2024-02-16T12:15:54;101026.16;;;12.00;100.00
66668;BME280;57205;51.438;-2.006;2024-02-16T12:18:24;101032.84;;;11.92;100.00
66668;BME280;57205;51.438;-2.006;2024-02-16T12:21:03;101037.94;;;11.89;100.00
66668;BME280;57205;51.438;-2.006;2024-02-16T12:23:31;101041.66;;;11.83;100.00
66668;BME280;57205;51.438;-2.006;2024-02-16T12:25:57;101044.81;;;11.74;100.00
66668;BME280;57205;51.438;-2.006;2024-02-16T12:28:27;101046.94;;;11.67;100.00
66668;BME280;57205;51.438;-2.006;2024-02-16T12:30:54;101050.38;;;11.63;100.00
66668;BME280;57205;51.438;-2.006;2024-02-16T12:33:25;101050.06;;;11.59;100.00
66668;BME280;57205;51.438;-2.006;2024-02-16T12:35:51;101055.19;;;11.61;100.00
66668;BME280;57205;51.438;-2.006;2024-02-16T12:38:16;101056.84;;;11.67;100.00
66668;BME280;57205;51.438;-2.006;2024-02-16T12:40:49;101050.44;;;11.73;100.00
66668;BME280;57205;51.438;-2.006;2024-02-16T12:43:15;101061.72;;;11.80;100.00
66668;BME280;57205;51.438;-2.006;2024-02-16T12:45:41;101053.47;;;11.92;100.00
66668;BME280;57205;51.438;-2.006;2024-02-16T12:48:07;101040.91;;;11.97;100.00
66668;BME280;57205;51.438;-2.006;2024-02-16T12:53:09;101048.66;;;11.94;100.00
66668;BME280;57205;51.438;-2.006;2024-02-16T12:55:35;101040.88;;;11.87;100.00
66668;BME280;57205;51.438;-2.006;2024-02-16T12:58:01;101040.56;;;11.78;100.00
66668;BME280;57205;51.438;-2.006;2024-02-16T13:00:26;101052.09;;;11.79;100.00
66668;BME280;57205;51.438;-2.006;2024-02-16T13:02:52;101043.78;;;11.86;100.00
66668;BME280;57205;51.438;-2.006;2024-02-16T13:05:17;101047.28;;;11.81;100.00